createdAt,value
2023-01-29T00:00:29.979Z,103031.88
2023-01-29T00:03:32.892Z,103032.72
2023-01-29T00:06:36.772Z,103028.59
2023-01-29T00:09:40.000Z,103033.03
2023-01-29T00:12:42.535Z,103020.88
2023-01-29T00:15:53.990Z,103020.31
2023-01-29T00:18:56.617Z,103019.50
2023-01-29T00:22:00.484Z,103019.50
2023-01-29T00:25:03.135Z,103018.66
2023-01-29T00:28:06.127Z,103018.66
2023-01-29T00:31:09.666Z,103015.31
2023-01-29T00:34:12.235Z,103016.97
2023-01-29T00:37:16.173Z,103011.47
2023-01-29T00:40:19.107Z,103014.47
2023-01-29T00:43:39.147Z,102996.53
2023-01-29T00:46:41.734Z,102987.41
2023-01-29T00:49:44.260Z,102994.28
2023-01-29T00:52:49.610Z,102988.75
2023-01-29T00:55:52.149Z,102992.59
2023-01-29T00:58:54.702Z,102977.72
2023-01-29T01:02:14.724Z,102986.25
2023-01-29T01:05:18.788Z,102976.59
2023-01-29T01:08:40.439Z,102976.03
2023-01-29T01:11:42.956Z,102975.22
2023-01-29T01:14:46.036Z,102989.00
2023-01-29T01:17:49.565Z,102986.00
2023-01-29T01:20:57.821Z,102984.91
2023-01-29T01:24:01.777Z,102984.91
2023-01-29T01:27:04.376Z,102991.00
2023-01-29T01:30:09.611Z,103003.16
2023-01-29T01:33:12.194Z,102996.53
2023-01-29T01:36:15.840Z,102992.94
2023-01-29T01:39:19.715Z,102999.28
2023-01-29T01:42:22.333Z,102996.53
2023-01-29T01:45:26.914Z,102997.06
2023-01-29T01:48:29.528Z,103005.09
2023-01-29T01:51:32.627Z,102996.56
2023-01-29T01:54:36.500Z,103001.00
2023-01-29T01:57:39.073Z,102993.81
2023-01-29T02:00:41.668Z,102991.88
2023-01-29T02:04:03.098Z,102989.38
2023-01-29T02:07:23.399Z,102984.41
2023-01-29T02:10:27.321Z,102976.03
2023-01-29T02:13:29.845Z,102981.03
2023-01-29T02:16:33.109Z,102976.34
2023-01-29T02:19:40.611Z,102979.34
2023-01-29T02:22:47.230Z,102970.50
2023-01-29T02:26:21.414Z,102975.97
2023-01-29T02:29:28.708Z,102988.69
2023-01-29T02:32:32.390Z,102991.44
2023-01-29T02:35:37.413Z,102988.69
2023-01-29T02:38:42.774Z,102988.69
2023-01-29T02:41:47.029Z,102987.03
2023-01-29T02:44:53.245Z,102985.69
2023-01-29T02:47:58.481Z,102981.53
2023-01-29T02:51:03.510Z,102971.06
2023-01-29T02:54:08.704Z,102971.59
2023-01-29T02:57:14.752Z,102977.66
2023-01-29T03:00:19.699Z,102977.06
2023-01-29T03:03:24.484Z,102969.88
2023-01-29T03:06:28.517Z,102968.50
2023-01-29T03:09:34.042Z,102954.34
2023-01-29T03:12:36.733Z,102960.97
2023-01-29T03:15:42.465Z,102959.06
2023-01-29T03:18:48.653Z,102961.81
2023-01-29T03:21:55.239Z,102946.03
2023-01-29T03:25:16.552Z,102957.69
2023-01-29T03:28:36.912Z,102949.91
2023-01-29T03:31:58.653Z,102944.34
2023-01-29T03:35:03.924Z,102948.75
2023-01-29T03:38:09.750Z,102941.53
2023-01-29T03:41:19.385Z,102947.59
2023-01-29T03:44:26.387Z,102953.09
2023-01-29T03:47:34.496Z,102947.59
2023-01-29T03:50:39.796Z,102947.59
2023-01-29T03:53:44.158Z,102929.09
2023-01-29T03:56:54.430Z,102932.69
2023-01-29T03:59:58.884Z,102923.84
2023-01-29T04:03:05.381Z,102924.97
2023-01-29T04:06:12.394Z,102919.97
2023-01-29T04:09:16.895Z,102920.78
2023-01-29T04:12:21.155Z,102922.72
2023-01-29T04:15:23.835Z,102931.56
2023-01-29T04:18:27.779Z,102920.53
2023-01-29T04:21:31.763Z,102909.50
2023-01-29T04:24:34.367Z,102900.38
2023-01-29T04:27:41.625Z,102904.81
2023-01-29T04:30:46.615Z,102911.16
2023-01-29T04:33:53.855Z,102912.81
2023-01-29T04:37:03.571Z,102900.63
2023-01-29T04:40:13.972Z,102900.69
2023-01-29T04:43:19.062Z,102872.22
2023-01-29T04:46:23.527Z,102876.66
2023-01-29T04:49:34.292Z,102878.06
2023-01-29T04:52:40.378Z,102883.28
2023-01-29T04:55:44.856Z,102885.22
2023-01-29T04:58:48.494Z,102883.56
2023-01-29T05:01:51.037Z,102873.06
2023-01-29T05:04:55.085Z,102885.75
2023-01-29T05:07:57.682Z,102876.38
2023-01-29T05:11:00.427Z,102869.19
2023-01-29T05:14:03.758Z,102858.16
2023-01-29T05:17:08.677Z,102860.94
2023-01-29T05:20:13.488Z,102867.56
2023-01-29T05:23:17.068Z,102856.53
2023-01-29T05:26:37.193Z,102853.75
2023-01-29T05:29:40.163Z,102853.75
2023-01-29T05:32:42.741Z,102846.06
2023-01-29T05:35:46.988Z,102838.88
2023-01-29T05:38:49.809Z,102832.00
2023-01-29T05:41:52.383Z,102831.16
2023-01-29T05:44:55.040Z,102832.25
2023-01-29T05:47:57.939Z,102844.97
2023-01-29T05:51:02.299Z,102849.41
2023-01-29T05:54:05.088Z,102842.22
2023-01-29T05:57:07.624Z,102838.34
2023-01-29T06:00:13.029Z,102845.53
2023-01-29T06:03:16.052Z,102847.75
2023-01-29T06:06:19.991Z,102838.38
2023-01-29T06:09:22.573Z,102835.63
2023-01-29T06:12:25.148Z,102842.81
2023-01-29T06:15:27.733Z,102831.78
2023-01-29T06:18:30.258Z,102832.59
2023-01-29T06:21:34.176Z,102831.78
2023-01-29T06:24:37.264Z,102828.19
2023-01-29T06:27:39.832Z,102823.75
2023-01-29T06:30:42.450Z,102810.22
2023-01-29T06:33:45.035Z,102818.50
2023-01-29T06:36:48.953Z,102811.31
2023-01-29T06:39:51.527Z,102819.59
2023-01-29T06:42:54.114Z,102817.94
2023-01-29T06:45:57.503Z,102803.03
2023-01-29T06:49:01.055Z,102811.31
2023-01-29T06:52:05.128Z,102802.47
2023-01-29T06:55:08.580Z,102798.56
2023-01-29T06:58:12.633Z,102808.00
2023-01-29T07:01:29.288Z,102804.66
2023-01-29T07:04:37.702Z,102801.91
2023-01-29T07:07:41.591Z,102794.97
2023-01-29T07:10:44.162Z,102803.84
2023-01-29T07:13:46.753Z,102804.09
2023-01-29T07:16:49.326Z,102807.44
2023-01-29T07:19:51.857Z,102814.63
2023-01-29T07:22:55.747Z,102811.59
2023-01-29T07:26:01.004Z,102820.13
2023-01-29T07:29:03.615Z,102810.75
2023-01-29T07:32:07.693Z,102815.19
2023-01-29T07:35:10.570Z,102813.53
2023-01-29T07:38:14.506Z,102816.28
2023-01-29T07:41:17.073Z,102809.09
2023-01-29T07:44:19.599Z,102807.72
2023-01-29T07:47:22.167Z,102794.75
2023-01-29T07:50:24.928Z,102800.56
2023-01-29T07:53:29.070Z,102798.06
2023-01-29T07:56:31.649Z,102800.56
2023-01-29T07:59:34.234Z,102797.50
2023-01-29T08:02:36.876Z,102797.50
2023-01-29T08:05:39.503Z,102786.47
2023-01-29T08:08:43.407Z,102796.41
2023-01-29T08:11:45.935Z,102793.66
2023-01-29T08:14:48.533Z,102789.81
2023-01-29T08:17:57.769Z,102796.16
2023-01-29T08:21:01.795Z,102784.28
2023-01-29T08:24:06.484Z,102777.94
2023-01-29T08:27:09.107Z,102775.72
2023-01-29T08:30:12.954Z,102769.91
2023-01-29T08:33:17.564Z,102772.66
2023-01-29T08:36:20.341Z,102767.16
2023-01-29T08:39:24.278Z,102766.06
2023-01-29T08:42:26.890Z,102763.03
2023-01-29T08:45:30.085Z,102760.03
2023-01-29T08:48:33.211Z,102760.03
2023-01-29T08:51:35.796Z,102760.56
2023-01-29T08:54:39.737Z,102761.13
2023-01-29T08:57:42.325Z,102755.59
2023-01-29T09:00:45.038Z,102761.13
2023-01-29T09:03:47.640Z,102755.09
2023-01-29T09:06:50.236Z,102752.88
2023-01-29T09:09:55.250Z,102738.53
2023-01-29T09:12:57.770Z,102739.63
2023-01-29T09:16:01.102Z,102750.69
2023-01-29T09:19:03.687Z,102749.59
2023-01-29T09:22:06.305Z,102753.19
2023-01-29T09:25:10.735Z,102750.69
2023-01-29T09:28:13.349Z,102744.09
2023-01-29T09:31:15.972Z,102731.38
2023-01-29T09:34:18.626Z,102732.47
2023-01-29T09:37:23.133Z,102722.00
2023-01-29T09:40:27.947Z,102734.72
2023-01-29T09:43:37.196Z,102722.00
2023-01-29T09:46:41.026Z,102730.28
2023-01-29T09:49:46.703Z,102735.81
2023-01-29T09:52:51.635Z,102736.38
2023-01-29T09:55:57.375Z,102730.84
2023-01-29T09:59:01.658Z,102727.00
2023-01-29T10:02:09.903Z,102726.72
2023-01-29T10:05:22.265Z,102717.06
2023-01-29T10:08:42.359Z,102713.19
2023-01-29T10:11:47.665Z,102723.41
2023-01-29T10:14:54.343Z,102716.50
2023-01-29T10:18:07.359Z,102721.50
2023-01-29T10:21:18.016Z,102708.53
2023-01-29T10:24:25.299Z,102717.06
2023-01-29T10:27:32.935Z,102719.81
2023-01-29T10:30:38.143Z,102719.81
2023-01-29T10:34:01.007Z,102713.75
2023-01-29T10:37:09.359Z,102702.16
2023-01-29T10:40:19.825Z,102700.50
2023-01-29T10:43:27.920Z,102692.47
2023-01-29T10:46:37.728Z,102684.44
2023-01-29T10:49:50.227Z,102680.59
2023-01-29T10:53:04.697Z,102679.25
2023-01-29T10:56:22.351Z,102671.78
2023-01-29T10:59:37.770Z,102661.56
2023-01-29T11:02:44.812Z,102660.75
2023-01-29T11:05:51.424Z,102658.56
2023-01-29T11:08:55.414Z,102658.00
2023-01-29T11:11:58.884Z,102658.56
2023-01-29T11:15:04.151Z,102652.47
2023-01-29T11:18:10.569Z,102660.22
2023-01-29T11:21:13.141Z,102652.50
2023-01-29T11:24:17.514Z,102655.31
2023-01-29T11:27:25.722Z,102635.41
2023-01-29T11:30:30.031Z,102633.75
2023-01-29T11:33:32.643Z,102636.50
2023-01-29T11:36:37.983Z,102631.81
2023-01-29T11:39:40.514Z,102630.44
2023-01-29T11:42:43.080Z,102625.44
2023-01-29T11:45:47.094Z,102617.16
2023-01-29T11:48:51.540Z,102617.16
2023-01-29T11:51:54.336Z,102605.56
2023-01-29T11:54:58.268Z,102604.22
2023-01-29T11:58:02.875Z,102605.56
2023-01-29T12:01:06.923Z,102600.06
2023-01-29T12:04:16.218Z,102605.00
2023-01-29T12:07:19.175Z,102585.41
2023-01-29T12:10:32.743Z,102569.66
2023-01-29T12:13:36.042Z,102564.13
2023-01-29T12:16:41.138Z,102564.69
2023-01-29T12:19:45.513Z,102547.56
2023-01-29T12:22:51.369Z,102544.78
2023-01-29T12:25:58.015Z,102538.44
2023-01-29T12:29:25.172Z,102522.13
2023-01-29T12:32:33.135Z,102524.34
2023-01-29T12:35:37.554Z,102526.53
2023-01-29T12:38:40.956Z,102528.22
2023-01-29T12:41:46.127Z,102515.50
2023-01-29T12:44:50.803Z,102517.16
2023-01-29T12:47:56.489Z,102498.34
2023-01-29T12:51:02.335Z,102500.56
2023-01-29T12:54:06.100Z,102485.06
2023-01-29T12:57:10.991Z,102484.81
2023-01-29T13:00:15.528Z,102467.94
2023-01-29T13:03:22.018Z,102449.44
2023-01-29T13:06:27.413Z,102450.22
2023-01-29T13:09:31.026Z,102440.88
2023-01-29T13:12:33.572Z,102422.63
2023-01-29T13:15:36.782Z,102414.88
2023-01-29T13:18:44.113Z,102420.41
2023-01-29T13:21:46.657Z,102408.78
2023-01-29T13:24:58.758Z,102405.50
2023-01-29T13:28:06.473Z,102396.09
2023-01-29T13:31:21.705Z,102399.38
2023-01-29T13:34:26.372Z,102388.31
2023-01-29T13:37:31.772Z,102395.28
2023-01-29T13:40:35.471Z,102395.50
2023-01-29T13:43:39.247Z,102403.25
2023-01-29T13:46:42.182Z,102386.66
2023-01-29T13:49:46.985Z,102389.75
2023-01-29T13:52:54.307Z,102381.16
2023-01-29T13:55:56.870Z,102376.44
2023-01-29T13:58:59.666Z,102366.81
2023-01-29T14:02:04.728Z,102381.44
2023-01-29T14:05:42.552Z,102369.28
2023-01-29T14:08:45.252Z,102362.94
2023-01-29T14:11:48.975Z,102365.38
2023-01-29T14:14:52.801Z,102352.72
2023-01-29T14:17:56.969Z,102348.84
2023-01-29T14:21:04.976Z,102346.91
2023-01-29T14:24:12.695Z,102348.56
2023-01-29T14:27:20.373Z,102347.97
2023-01-29T14:30:28.830Z,102337.50
2023-01-29T14:33:35.479Z,102340.25
2023-01-29T14:36:42.659Z,102338.59
2023-01-29T14:39:45.933Z,102325.88
2023-01-29T14:42:55.975Z,102325.88
2023-01-29T14:45:58.516Z,102329.78
2023-01-29T14:49:01.063Z,102319.56
2023-01-29T14:52:05.028Z,102319.03
2023-01-29T14:55:08.896Z,102309.34
2023-01-29T14:58:13.799Z,102316.53
2023-01-29T15:01:20.265Z,102309.34
2023-01-29T15:04:24.574Z,102314.88
2023-01-29T15:07:31.727Z,102312.13
2023-01-29T15:10:41.251Z,102298.91
2023-01-29T15:13:46.304Z,102306.63
2023-01-29T15:16:53.104Z,102304.41
2023-01-29T15:19:56.742Z,102303.91
2023-01-29T15:23:00.860Z,102304.72
2023-01-29T15:26:05.440Z,102294.22
2023-01-29T15:29:07.976Z,102291.75
2023-01-29T15:32:14.530Z,102284.00
2023-01-29T15:35:25.840Z,102283.47
2023-01-29T15:38:29.822Z,102282.94
2023-01-29T15:41:32.363Z,102284.03
2023-01-29T15:44:34.988Z,102283.75
2023-01-29T15:47:37.612Z,102282.34
2023-01-29T15:50:41.309Z,102280.69
2023-01-29T15:53:46.945Z,102283.19
2023-01-29T15:56:51.254Z,102281.56
2023-01-29T15:59:54.773Z,102287.88
2023-01-29T16:02:57.596Z,102279.59
2023-01-29T16:06:00.245Z,102282.91
2023-01-29T16:09:04.595Z,102279.03
2023-01-29T16:12:07.496Z,102273.78
2023-01-29T16:15:24.334Z,102268.81
2023-01-29T16:18:30.197Z,102271.31
2023-01-29T16:21:33.911Z,102268.53
2023-01-29T16:24:38.317Z,102265.22
2023-01-29T16:27:43.174Z,102273.50
2023-01-29T16:30:45.732Z,102270.75
2023-01-29T16:33:49.510Z,102267.97
2023-01-29T16:36:53.511Z,102260.22
2023-01-29T16:39:58.332Z,102252.75
2023-01-29T16:43:31.351Z,102251.38
2023-01-29T16:46:37.172Z,102253.59
2023-01-29T16:49:44.784Z,102249.16
2023-01-29T16:52:57.524Z,102233.97
2023-01-29T16:56:04.901Z,102237.00
2023-01-29T16:59:07.595Z,102237.84
2023-01-29T17:02:14.544Z,102224.31
2023-01-29T17:05:20.563Z,102230.38
2023-01-29T17:08:24.639Z,102231.47
2023-01-29T17:11:32.734Z,102231.22
2023-01-29T17:14:35.940Z,102219.03
2023-01-29T17:17:38.567Z,102221.25
2023-01-29T17:20:41.154Z,102215.47
2023-01-29T17:23:43.723Z,102213.75
2023-01-29T17:26:47.683Z,102206.06
2023-01-29T17:29:52.060Z,102204.69
2023-01-29T17:32:55.209Z,102204.69
2023-01-29T17:35:57.757Z,102202.75
2023-01-29T17:39:01.100Z,102192.28
2023-01-29T17:42:05.205Z,102180.41
2023-01-29T17:45:08.796Z,102169.63
2023-01-29T17:48:13.203Z,102172.94
2023-01-29T17:51:16.610Z,102165.78
2023-01-29T17:54:19.142Z,102171.84
2023-01-29T17:57:23.067Z,102168.53
2023-01-29T18:00:25.850Z,102162.22
2023-01-29T18:03:28.471Z,102161.41
2023-01-29T18:06:31.028Z,102159.75
2023-01-29T18:09:33.553Z,102162.78
2023-01-29T18:12:37.428Z,102148.69
2023-01-29T18:15:40.093Z,102145.38
2023-01-29T18:18:42.701Z,102136.81
2023-01-29T18:21:45.283Z,102133.78
2023-01-29T18:24:47.879Z,102132.94
2023-01-29T18:27:51.766Z,102118.31
2023-01-29T18:30:54.333Z,102122.72
2023-01-29T18:33:56.966Z,102098.44
2023-01-29T18:37:00.215Z,102097.31
2023-01-29T18:40:02.798Z,102090.13
2023-01-29T18:43:06.671Z,102090.13
2023-01-29T18:46:09.321Z,102084.34
2023-01-29T18:49:11.878Z,102087.91
2023-01-29T18:52:14.460Z,102079.09
2023-01-29T18:55:17.512Z,102068.03
2023-01-29T18:58:26.624Z,102066.34
2023-01-29T19:01:36.421Z,102071.59
2023-01-29T19:04:38.951Z,102071.59
2023-01-29T19:07:41.498Z,102061.63
2023-01-29T19:10:44.320Z,102056.94
2023-01-29T19:13:49.736Z,102046.44
2023-01-29T19:16:52.306Z,102047.25
2023-01-29T19:19:56.491Z,102048.91
2023-01-29T19:22:59.500Z,102048.63
2023-01-29T19:26:02.062Z,102039.75
2023-01-29T19:29:07.493Z,102032.28
2023-01-29T19:32:11.572Z,102038.34
2023-01-29T19:35:14.161Z,102037.53
2023-01-29T19:38:20.918Z,102053.28
2023-01-29T19:41:23.528Z,102056.56
2023-01-29T19:44:27.496Z,102064.56
2023-01-29T19:47:30.105Z,102052.94
2023-01-29T19:50:32.718Z,102061.19
2023-01-29T19:53:35.522Z,102055.88
2023-01-29T19:56:38.053Z,102066.09
2023-01-29T19:59:45.593Z,102048.91
2023-01-29T20:02:48.499Z,102040.03
2023-01-29T20:05:51.062Z,102043.84
2023-01-29T20:08:53.625Z,102047.69
2023-01-29T20:11:56.225Z,102001.22
2023-01-29T20:15:00.151Z,101999.22
2023-01-29T20:18:03.822Z,102005.00
2023-01-29T20:21:07.154Z,102022.63
2023-01-29T20:24:12.360Z,102020.09
2023-01-29T20:27:14.958Z,102022.28
2023-01-29T20:30:19.565Z,102015.56
2023-01-29T20:33:22.309Z,102014.38
2023-01-29T20:36:24.863Z,102001.09
2023-01-29T20:39:27.388Z,102029.50
2023-01-29T20:42:29.905Z,102010.66
2023-01-29T20:45:35.896Z,102011.41
2023-01-29T20:48:38.579Z,101998.09
2023-01-29T20:51:41.139Z,101995.28
2023-01-29T20:54:43.835Z,101986.69
2023-01-29T20:57:46.547Z,101987.72
2023-01-29T21:01:10.689Z,101996.56
2023-01-29T21:04:13.269Z,101998.75
2023-01-29T21:07:15.856Z,102008.06
2023-01-29T21:10:18.779Z,102017.13
2023-01-29T21:13:21.508Z,102010.63
2023-01-29T21:16:26.915Z,102012.63
2023-01-29T21:19:30.820Z,102007.47
2023-01-29T21:22:33.361Z,102003.09
2023-01-29T21:25:35.962Z,102004.88
2023-01-29T21:28:38.543Z,101996.38
2023-01-29T21:31:42.544Z,101979.91
2023-01-29T21:34:45.189Z,101954.25
2023-01-29T21:37:47.740Z,101918.97
2023-01-29T21:40:50.270Z,101903.88
2023-01-29T21:43:52.850Z,101902.63
2023-01-29T21:46:56.812Z,101870.72
2023-01-29T21:49:59.372Z,101863.75
2023-01-29T21:53:02.014Z,101859.84
2023-01-29T21:56:05.039Z,101879.78
2023-01-29T21:59:07.630Z,101915.19
2023-01-29T22:02:13.566Z,101920.63
2023-01-29T22:05:19.640Z,101925.56
2023-01-29T22:08:25.484Z,101912.19
2023-01-29T22:11:28.330Z,101916.59
2023-01-29T22:14:30.906Z,101918.78
2023-01-29T22:17:35.221Z,101896.59
2023-01-29T22:20:37.919Z,101899.06
2023-01-29T22:23:40.513Z,101907.03
2023-01-29T22:26:44.159Z,101919.19
2023-01-29T22:29:46.829Z,101908.09
2023-01-29T22:32:51.005Z,101873.66
2023-01-29T22:35:54.611Z,101868.63
2023-01-29T22:38:57.178Z,101880.53
2023-01-29T22:41:59.763Z,101856.91
2023-01-29T22:45:02.339Z,101860.19
2023-01-29T22:48:08.188Z,101874.56
2023-01-29T22:51:10.833Z,101877.88
2023-01-29T22:54:15.363Z,101864.47
2023-01-29T22:57:17.951Z,101849.47
2023-01-29T23:00:21.321Z,101837.78
2023-01-29T23:03:25.328Z,101846.59
2023-01-29T23:06:27.860Z,101830.16
2023-01-29T23:09:30.435Z,101837.81
2023-01-29T23:12:32.995Z,101812.53
2023-01-29T23:15:35.573Z,101828.06
2023-01-29T23:18:39.669Z,101835.25
2023-01-29T23:21:42.189Z,101829.06
2023-01-29T23:24:44.764Z,101820.75
2023-01-29T23:27:46.719Z,101815.72
2023-01-29T23:30:51.964Z,101802.66
2023-01-29T23:33:56.265Z,101822.91
2023-01-29T23:36:58.933Z,101797.63
2023-01-29T23:40:01.552Z,101807.91
2023-01-29T23:43:04.122Z,101787.31
2023-01-29T23:46:07.134Z,101796.81
2023-01-29T23:49:11.021Z,101791.25
2023-01-29T23:52:13.603Z,101794.03
2023-01-29T23:55:16.219Z,101792.06
2023-01-29T23:58:18.804Z,101796.81
